Terminal Aerodrome Forecast
Issued by NWS Chicago, IL

Home | Current Version | Previous Version | Graphics & Text | Print | Product List | Glossary On
Versions: 1 2 3 4 5 6 7 8 9 10 11 12 13 14 15 16 17 18 19 20 21 22 23 24 25 26 27 28 29
000
FTUS43 KLOT 272340
TAFRFD
TAF
KRFD 272340Z 2800/2824 19007KT P6SM SCT250
     FM281000 17011KT P6SM SCT050 BKN250
     FM281400 19017G27KT 4SM -SHRA VCTS OVC050CB PROB30 2814/2817
      2SM TSRA OVC030CB
     FM281700 19020G29KT P6SM VCSH BKN050=

USA.gov is the U.S. government's official web portal to all federal, state and local government web resources and services.